Time;durP1;ratioP1;P1;durP2;ratioP2;P2;SDS_P1;SDS_P2;PMS_P1;PMS_P2;Temp;Humidity;BMP_temperature;BMP_pressure;BME280_temperature;BME280_humidity;BME280_pressure;Samples;Min_cycle;Max_cycle;Signal;HPM_P1;HPM_P2
2022/07/09 00:02:00;;;;;;;;;;;;;;;26.53;58.93;100821.81;5046742;28;20284;-82
2022/07/09 00:04:25;;;;;;;;;;;;;;;26.53;58.77;100825.38;5045425;28;20443;-81
2022/07/09 00:06:50;;;;;;;;;;;;;;;26.47;58.66;100814.72;5036338;28;20426;-82
2022/07/09 00:09:16;;;;;;;;;;;;;;;26.51;58.68;100821.81;5051232;28;20302;-81
2022/07/09 00:11:41;;;;;;;;;;;;;;;26.51;58.66;100818.25;5052083;28;20567;-81
2022/07/09 00:14:07;;;;;;;;;;;;;;;26.52;58.48;100812.91;5032781;28;19912;-81
2022/07/09 00:16:32;;;;;;;;;;;;;;;26.54;58.73;100812.84;5045166;28;20258;-82
2022/07/09 00:18:58;;;;;;;;;;;;;;;26.53;58.90;100822.69;5049790;28;19948;-82
2022/07/09 00:21:23;;;;;;;;;;;;;;;26.54;58.88;100820.88;5032972;28;20451;-81
2022/07/09 00:23:48;;;;;;;;;;;;;;;26.52;58.52;100820.00;5032512;28;19912;-82
2022/07/09 00:26:14;;;;;;;;;;;;;;;26.51;58.75;100808.41;5051528;28;19912;-80
2022/07/09 00:28:39;;;;;;;;;;;;;;;26.54;58.72;100815.53;5052123;28;19912;-81
2022/07/09 00:31:05;;;;;;;;;;;;;;;26.51;58.49;100812.91;5044923;28;20315;-81
2022/07/09 00:33:30;;;;;;;;;;;;;;;26.50;58.50;100809.34;5047582;28;19913;-81
2022/07/09 00:35:56;;;;;;;;;;;;;;;26.50;58.51;100804.00;5050475;28;20381;-82
2022/07/09 00:38:21;;;;;;;;;;;;;;;26.50;58.39;100805.75;5061677;28;19916;-81
2022/07/09 00:40:46;;;;;;;;;;;;;;;26.51;58.64;100802.19;5049771;28;19956;-81
2022/07/09 00:43:18;;;;;;;;;;;;;;;26.51;58.58;100802.19;5049893;28;19912;-82
2022/07/09 00:45:44;;;;;;;;;;;;;;;26.50;58.58;100797.72;5050354;28;19962;-81
2022/07/09 00:48:09;;;;;;;;;;;;;;;26.45;58.07;100797.78;5046267;28;19909;-81
2022/07/09 00:50:35;;;;;;;;;;;;;;;26.39;58.47;100785.38;5054544;28;19908;-81
2022/07/09 00:53:00;;;;;;;;;;;;;;;26.33;58.65;100792.53;5062155;28;20411;-81
2022/07/09 00:55:26;;;;;;;;;;;;;;;26.33;58.61;100789.88;5041358;28;19916;-81
2022/07/09 00:57:52;;;;;;;;;;;;;;;26.35;58.40;100786.28;5032961;28;20289;-81
2022/07/09 01:00:18;;;;;;;;;;;;;;;26.25;58.90;100791.78;5051704;28;20384;-81
2022/07/09 01:02:45;;;;;;;;;;;;;;;26.36;58.25;100782.69;5050223;28;19913;-80
2022/07/09 01:05:10;;;;;;;;;;;;;;;26.28;58.97;100781.00;5043624;28;19913;-82
2022/07/09 01:07:36;;;;;;;;;;;;;;;26.30;58.81;100780.09;5042581;28;20046;-82
2022/07/09 01:10:01;;;;;;;;;;;;;;;26.16;59.01;100782.94;5034016;28;19919;-81
2022/07/09 01:12:26;;;;;;;;;;;;;;;26.15;58.91;100785.59;5057433;28;19919;-81
2022/07/09 01:14:52;;;;;;;;;;;;;;;26.13;58.71;100782.94;5026064;28;19913;-80
2022/07/09 01:17:17;;;;;;;;;;;;;;;26.18;58.58;100785.56;5051620;28;19913;-80
2022/07/09 01:19:43;;;;;;;;;;;;;;;26.20;58.84;100778.41;5032785;28;19943;-80
2022/07/09 01:22:09;;;;;;;;;;;;;;;26.22;58.44;100786.44;5053609;28;19970;-80
2022/07/09 01:24:34;;;;;;;;;;;;;;;26.17;58.86;100783.81;5036098;28;19921;-81
2022/07/09 01:27:00;;;;;;;;;;;;;;;26.15;58.94;100788.28;5036203;28;20054;-80
2022/07/09 01:29:25;;;;;;;;;;;;;;;26.11;58.91;100783.88;5055042;28;19912;-82
2022/07/09 01:31:51;;;;;;;;;;;;;;;26.15;58.63;100778.47;5057146;28;20052;-81
2022/07/09 01:34:16;;;;;;;;;;;;;;;26.17;58.60;100767.75;5053289;28;20017;-81
2022/07/09 01:36:42;;;;;;;;;;;;;;;26.08;59.01;100773.19;5050109;28;19924;-81
2022/07/09 01:39:07;;;;;;;;;;;;;;;25.96;59.16;100776.88;5048940;28;19917;-80
2022/07/09 01:41:32;;;;;;;;;;;;;;;26.20;58.46;100784.66;5057623;28;19913;-80
2022/07/09 01:43:58;;;;;;;;;;;;;;;26.14;58.77;100784.72;5055414;28;19912;-81
2022/07/09 01:46:23;;;;;;;;;;;;;;;26.27;58.38;100789.94;5056062;28;20362;-81
2022/07/09 01:48:49;;;;;;;;;;;;;;;26.27;58.47;100795.28;5054367;28;19915;-80
2022/07/09 01:51:15;;;;;;;;;;;;;;;26.35;58.46;100798.78;5054393;28;19916;-80
2022/07/09 01:53:40;;;;;;;;;;;;;;;26.34;58.54;100795.22;5053755;28;20414;-81
2022/07/09 01:56:07;;;;;;;;;;;;;;;26.36;58.18;100800.56;5056950;28;19999;-80
2022/07/09 01:58:32;;;;;;;;;;;;;;;26.36;58.53;100801.44;5044385;28;19913;-81
2022/07/09 02:00:58;;;;;;;;;;;;;;;26.37;58.24;100794.28;5053579;28;20048;-81
2022/07/09 02:03:23;;;;;;;;;;;;;;;26.35;58.53;100791.66;5053587;28;19996;-80
2022/07/09 02:05:49;;;;;;;;;;;;;;;26.39;58.03;100800.50;5052077;28;20672;-81
2022/07/09 02:08:15;;;;;;;;;;;;;;;26.38;58.15;100794.28;5041878;28;20627;-80
2022/07/09 02:10:40;;;;;;;;;;;;;;;26.40;58.33;100795.16;5053580;28;19913;-82
2022/07/09 02:13:06;;;;;;;;;;;;;;;26.41;58.18;100788.00;5056356;28;19936;-81
2022/07/09 02:15:32;;;;;;;;;;;;;;;26.41;57.95;100793.34;5036343;28;19917;-82
2022/07/09 02:17:58;;;;;;;;;;;;;;;26.42;58.24;100784.44;5051274;28;20406;-80
2022/07/09 02:20:24;;;;;;;;;;;;;;;26.38;58.10;100794.28;5052264;28;19931;-81
2022/07/09 02:22:49;;;;;;;;;;;;;;;26.40;58.23;100792.47;5052904;28;19912;-80
2022/07/09 02:25:15;;;;;;;;;;;;;;;26.39;57.95;100781.78;5053456;28;20004;-80
2022/07/09 02:27:41;;;;;;;;;;;;;;;26.39;57.80;100784.44;5053088;28;19955;-81
2022/07/09 02:30:06;;;;;;;;;;;;;;;26.38;57.69;100780.91;5034018;28;20323;-80
2022/07/09 02:32:32;;;;;;;;;;;;;;;26.36;57.90;100785.38;5038380;28;19951;-80
2022/07/09 02:34:57;;;;;;;;;;;;;;;26.35;57.63;100785.38;5018579;28;19920;-80
2022/07/09 02:37:23;;;;;;;;;;;;;;;26.37;57.83;100789.84;5053762;28;19916;-81
2022/07/09 02:39:48;;;;;;;;;;;;;;;26.36;57.63;100787.19;5052897;28;19917;-80
2022/07/09 02:42:13;;;;;;;;;;;;;;;26.35;57.77;100791.66;5052686;28;20280;-80
2022/07/09 02:44:40;;;;;;;;;;;;;;;26.34;57.56;100788.97;5052145;28;19912;-81
2022/07/09 02:47:05;;;;;;;;;;;;;;;26.32;57.71;100790.78;5056847;28;19948;-81
2022/07/09 02:49:30;;;;;;;;;;;;;;;26.33;57.77;100792.53;5058926;28;19944;-83
2022/07/09 02:51:57;;;;;;;;;;;;;;;26.34;57.34;100788.97;5043303;28;20302;-83
2022/07/09 02:54:23;;;;;;;;;;;;;;;26.30;57.71;100792.59;5052599;28;19913;-83
2022/07/09 02:56:48;;;;;;;;;;;;;;;26.27;57.46;100788.16;5056444;28;19917;-82
2022/07/09 02:59:14;;;;;;;;;;;;;;;26.14;57.71;100792.75;5037100;28;19920;-82
2022/07/09 03:01:40;;;;;;;;;;;;;;;26.00;57.79;100794.66;5052747;28;19916;-83
2022/07/09 03:04:05;;;;;;;;;;;;;;;26.04;57.42;100798.22;5050366;28;19977;-82
2022/07/09 03:06:30;;;;;;;;;;;;;;;25.97;57.76;100800.03;5053360;28;20413;-81
2022/07/09 03:08:56;;;;;;;;;;;;;;;25.82;57.61;100802.81;5035321;28;20591;-81
2022/07/09 03:11:21;;;;;;;;;;;;;;;25.73;57.78;100793.97;5051492;28;19961;-82
2022/07/09 03:13:47;;;;;;;;;;;;;;;25.81;57.11;100793.91;5034674;28;19912;-82
2022/07/09 03:16:12;;;;;;;;;;;;;;;25.84;57.38;100796.53;5052851;28;19924;-81
2022/07/09 03:18:38;;;;;;;;;;;;;;;25.84;57.23;100795.66;5051881;28;20323;-82
2022/07/09 03:21:04;;;;;;;;;;;;;;;25.91;56.52;100795.66;5052841;28;19919;-82
2022/07/09 03:23:29;;;;;;;;;;;;;;;26.04;56.24;100796.41;5035142;28;19916;-81
2022/07/09 03:25:55;;;;;;;;;;;;;;;26.10;56.39;100784.75;5032657;28;19913;-81
2022/07/09 03:28:20;;;;;;;;;;;;;;;25.95;56.72;100792.03;5052065;28;19920;-81
2022/07/09 03:30:46;;;;;;;;;;;;;;;25.92;56.79;100781.34;5051674;28;19912;-80
2022/07/09 03:33:11;;;;;;;;;;;;;;;25.91;56.96;100787.63;5044800;28;19909;-81
2022/07/09 03:35:38;;;;;;;;;;;;;;;25.91;56.48;100778.72;5051119;28;20463;-81
2022/07/09 03:38:04;;;;;;;;;;;;;;;25.80;57.28;100776.06;5055650;28;20388;-81
2022/07/09 03:40:30;;;;;;;;;;;;;;;25.89;57.04;100781.41;5043781;28;20015;-81
2022/07/09 03:42:55;;;;;;;;;;;;;;;25.82;57.04;100778.75;5051150;28;19971;-82
2022/07/09 03:45:21;;;;;;;;;;;;;;;25.93;56.32;100779.56;5055200;28;19912;-81
2022/07/09 03:47:48;;;;;;;;;;;;;;;25.97;56.28;100783.97;5034212;28;19948;-81
2022/07/09 03:50:13;;;;;;;;;;;;;;;25.92;56.83;100788.50;5051713;28;19965;-81
2022/07/09 03:52:39;;;;;;;;;;;;;;;25.88;57.07;100784.91;5050132;28;19912;-81
2022/07/09 03:55:04;;;;;;;;;;;;;;;25.91;56.58;100801.00;5051224;28;20307;-80
2022/07/09 03:57:30;;;;;;;;;;;;;;;25.92;56.30;100791.19;5034231;28;20398;-81
2022/07/09 03:59:55;;;;;;;;;;;;;;;25.97;56.10;100797.34;5052766;28;19952;-81
2022/07/09 04:02:21;;;;;;;;;;;;;;;25.98;56.20;100802.72;5037117;28;20361;-81
2022/07/09 04:04:46;;;;;;;;;;;;;;;25.99;56.55;100795.56;5051006;28;19912;-81
2022/07/09 04:07:12;;;;;;;;;;;;;;;25.94;56.78;100803.63;5032846;28;19919;-81
2022/07/09 04:09:37;;;;;;;;;;;;;;;25.99;56.31;100807.16;5051112;28;19919;-81
2022/07/09 04:12:03;;;;;;;;;;;;;;;25.99;56.34;100808.94;5053425;28;20019;-81
2022/07/09 04:14:28;;;;;;;;;;;;;;;25.99;56.44;100816.97;5050926;28;19956;-81
2022/07/09 04:16:53;;;;;;;;;;;;;;;25.87;56.79;100811.72;5051069;28;19999;-81
2022/07/09 04:19:19;;;;;;;;;;;;;;;25.94;56.38;100806.31;5032564;28;20316;-80
2022/07/09 04:21:44;;;;;;;;;;;;;;;26.01;56.40;100817.84;5040814;28;20011;-80
2022/07/09 04:24:10;;;;;;;;;;;;;;;25.94;56.75;100816.13;5033308;28;20030;-82
2022/07/09 04:26:35;;;;;;;;;;;;;;;26.06;56.07;100810.69;5053784;28;19913;-81
2022/07/09 04:29:01;;;;;;;;;;;;;;;25.90;56.55;100812.59;5050993;28;19962;-81
2022/07/09 04:31:26;;;;;;;;;;;;;;;25.86;56.91;100816.16;5052671;28;19931;-82
2022/07/09 04:33:52;;;;;;;;;;;;;;;25.83;56.88;100812.63;5049670;28;20402;-82
2022/07/09 04:36:17;;;;;;;;;;;;;;;25.93;56.86;100814.34;5050038;28;19959;-82
2022/07/09 04:38:42;;;;;;;;;;;;;;;26.00;56.29;100811.59;5049237;28;19923;-81
2022/07/09 04:41:08;;;;;;;;;;;;;;;25.99;56.35;100809.84;5045115;28;20038;-81
2022/07/09 04:43:33;;;;;;;;;;;;;;;26.01;56.42;100807.13;5040122;28;19959;-82
2022/07/09 04:45:59;;;;;;;;;;;;;;;25.90;56.98;100807.22;5058494;28;20484;-82
2022/07/09 04:48:25;;;;;;;;;;;;;;;25.84;57.17;100812.59;5033523;28;20404;-80
2022/07/09 04:50:50;;;;;;;;;;;;;;;25.83;56.87;100823.34;5050754;28;20418;-81
2022/07/09 04:53:16;;;;;;;;;;;;;;;25.80;56.85;100824.22;5050563;28;20371;-81
2022/07/09 04:55:42;;;;;;;;;;;;;;;25.83;57.21;100829.56;5049039;28;20368;-81
2022/07/09 04:58:08;;;;;;;;;;;;;;;25.78;57.25;100816.22;5035686;28;19952;-82
2022/07/09 05:00:33;;;;;;;;;;;;;;;25.89;56.71;100826.88;5051967;28;20008;-82
2022/07/09 05:02:59;;;;;;;;;;;;;;;25.91;56.64;100827.75;5056778;28;19916;-82
2022/07/09 05:05:25;;;;;;;;;;;;;;;25.99;56.35;100819.63;5056454;28;19959;-81
2022/07/09 05:07:51;;;;;;;;;;;;;;;25.87;56.61;100825.09;5033061;28;20003;-80
2022/07/09 05:10:16;;;;;;;;;;;;;;;25.85;56.94;100827.78;5034191;28;20012;-80
2022/07/09 05:12:42;;;;;;;;;;;;;;;25.89;57.15;100834.03;5043470;28;19908;-83
2022/07/09 05:15:08;;;;;;;;;;;;;;;25.94;57.04;100835.75;5031854;28;20359;-81
2022/07/09 05:17:34;;;;;;;;;;;;;;;25.91;56.93;100838.47;5048669;28;19919;-81
2022/07/09 05:19:59;;;;;;;;;;;;;;;25.93;57.15;100833.06;5050479;28;20414;-81
2022/07/09 05:22:25;;;;;;;;;;;;;;;25.87;57.37;100833.13;5022289;28;20018;-82
2022/07/09 05:24:50;;;;;;;;;;;;;;;25.84;57.43;100833.13;5045459;28;19993;-82
2022/07/09 05:27:16;;;;;;;;;;;;;;;25.83;57.43;100834.03;5052532;28;19996;-83
2022/07/09 05:29:41;;;;;;;;;;;;;;;25.72;57.51;100836.78;5049169;28;20003;-83
2022/07/09 05:32:07;;;;;;;;;;;;;;;25.73;57.10;100835.88;5032492;28;19909;-82
2022/07/09 05:34:32;;;;;;;;;;;;;;;25.77;57.09;100841.19;5050347;28;20348;-82
2022/07/09 05:36:58;;;;;;;;;;;;;;;25.85;57.13;100834.91;5031580;28;20303;-82
2022/07/09 05:39:23;;;;;;;;;;;;;;;25.82;57.34;100841.16;5043042;28;19971;-82
2022/07/09 05:41:49;;;;;;;;;;;;;;;25.78;57.14;100842.06;5049271;28;19969;-83
2022/07/09 05:44:14;;;;;;;;;;;;;;;25.65;57.27;100835.03;5051545;28;19923;-83
2022/07/09 05:46:40;;;;;;;;;;;;;;;25.60;57.29;100832.41;5032249;28;20003;-85
2022/07/09 05:49:06;;;;;;;;;;;;;;;25.56;57.50;100834.22;5028960;28;20127;-83
2022/07/09 05:51:32;;;;;;;;;;;;;;;25.70;57.01;100841.28;5043995;28;19908;-84
2022/07/09 05:53:57;;;;;;;;;;;;;;;25.67;57.20;100831.44;5048629;28;20046;-83
2022/07/09 05:56:23;;;;;;;;;;;;;;;25.63;57.23;100828.81;5034971;28;19925;-83
2022/07/09 05:58:48;;;;;;;;;;;;;;;25.58;57.23;100826.19;5046057;28;19909;-82
2022/07/09 06:01:14;;;;;;;;;;;;;;;25.71;57.32;100826.97;5055193;28;19951;-82
2022/07/09 06:03:40;;;;;;;;;;;;;;;25.66;57.42;100824.34;5053549;28;19942;-83
2022/07/09 06:06:05;;;;;;;;;;;;;;;25.65;57.38;100821.66;5023821;28;19928;-81
2022/07/09 06:08:31;;;;;;;;;;;;;;;25.63;57.13;100821.66;5053204;28;19939;-82
2022/07/09 06:10:57;;;;;;;;;;;;;;;25.65;57.21;100822.56;5053236;28;19919;-84
2022/07/09 06:13:22;;;;;;;;;;;;;;;25.61;57.27;100815.44;5036076;28;20003;-80
2022/07/09 06:15:48;;;;;;;;;;;;;;;25.60;57.33;100814.56;5039678;28;19913;-83
2022/07/09 06:18:13;;;;;;;;;;;;;;;25.64;56.75;100804.75;5052015;28;19968;-81
2022/07/09 06:20:39;;;;;;;;;;;;;;;25.64;57.31;100796.72;5058328;28;19913;-82
2022/07/09 06:23:04;;;;;;;;;;;;;;;25.59;57.05;100793.22;5054499;28;20383;-81
2022/07/09 06:25:30;;;;;;;;;;;;;;;25.67;57.03;100795.81;5054321;28;20178;-81
2022/07/09 06:27:55;;;;;;;;;;;;;;;25.70;57.49;100794.00;5053201;28;19908;-80
2022/07/09 06:30:21;;;;;;;;;;;;;;;25.72;57.22;100780.63;5052463;28;20011;-82
2022/07/09 06:32:46;;;;;;;;;;;;;;;25.67;57.41;100782.44;5052973;28;19952;-81
2022/07/09 06:35:12;;;;;;;;;;;;;;;25.61;56.70;100783.34;5050549;28;19913;-81
2022/07/09 06:37:37;;;;;;;;;;;;;;;25.72;57.11;100773.47;5052388;28;19912;-82
2022/07/09 06:40:06;;;;;;;;;;;;;;;25.83;56.68;100773.38;5038283;28;19913;-82
2022/07/09 06:43:17;;;;;;;;;;;;;;;25.68;56.90;100776.19;5042001;28;19916;-82
2022/07/09 06:45:18;;;;;;;;;;;;;;;25.69;57.21;100776.16;5027279;28;20003;-81
2022/07/09 06:47:43;;;;;;;;;;;;;;;25.81;57.13;100775.19;5038170;28;19964;-81
2022/07/09 06:50:12;;;;;;;;;;;;;;;25.91;56.92;100784.06;5056760;28;19919;-82
2022/07/09 06:52:47;;;;;;;;;;;;;;;25.67;57.07;100777.09;5040838;28;19920;-85
2022/07/09 06:55:13;;;;;;;;;;;;;;;25.67;57.20;100782.44;5019998;28;19908;-82
2022/07/09 06:57:39;;;;;;;;;;;;;;;25.75;57.43;100777.91;5027950;28;19920;-81
2022/07/09 07:00:05;;;;;;;;;;;;;;;25.67;57.00;100783.31;5047793;28;20285;-81
2022/07/09 07:02:30;;;;;;;;;;;;;;;25.70;57.62;100780.63;5049216;28;19916;-82
2022/07/09 07:04:56;;;;;;;;;;;;;;;25.68;57.29;100773.53;5050300;28;19913;-81
2022/07/09 07:07:21;;;;;;;;;;;;;;;25.78;57.18;100783.22;5047264;28;20345;-81
2022/07/09 07:09:47;;;;;;;;;;;;;;;25.82;57.25;100779.63;5054031;28;20552;-81
2022/07/09 07:12:12;;;;;;;;;;;;;;;25.89;56.86;100778.72;5035331;28;19915;-81
2022/07/09 07:14:38;;;;;;;;;;;;;;;25.92;56.91;100781.34;5052993;28;20364;-81
2022/07/09 07:17:03;;;;;;;;;;;;;;;25.90;57.10;100772.44;5051667;28;20415;-81
2022/07/09 07:19:29;;;;;;;;;;;;;;;25.88;57.21;100776.88;5052780;28;20362;-82
2022/07/09 07:21:54;;;;;;;;;;;;;;;25.88;57.40;100781.38;5031893;28;20386;-82
2022/07/09 07:24:19;;;;;;;;;;;;;;;25.94;57.27;100773.31;5046235;28;19955;-82
2022/07/09 07:26:45;;;;;;;;;;;;;;;25.80;57.29;100770.72;5052628;28;19948;-82
2022/07/09 07:29:10;;;;;;;;;;;;;;;25.91;56.87;100776.03;5051597;28;20374;-82
2022/07/09 07:31:36;;;;;;;;;;;;;;;25.88;57.13;100774.22;5015117;28;20410;-82
2022/07/09 07:34:01;;;;;;;;;;;;;;;25.75;57.17;100783.25;5038318;28;20011;-82
2022/07/09 07:36:27;;;;;;;;;;;;;;;25.72;56.82;100783.31;5046847;28;20537;-81
2022/07/09 07:38:53;;;;;;;;;;;;;;;25.58;57.04;100786.06;5052126;28;19942;-81
2022/07/09 07:41:18;;;;;;;;;;;;;;;25.60;57.13;100798.53;5034375;28;20285;-81
2022/07/09 07:43:45;;;;;;;;;;;;;;;25.80;57.30;100794.78;5050700;28;19959;-80
2022/07/09 07:46:10;;;;;;;;;;;;;;;25.96;56.41;100792.94;5058771;28;20438;-80
2022/07/09 07:48:36;;;;;;;;;;;;;;;25.93;56.70;100803.63;5045032;28;19996;-80
2022/07/09 07:51:02;;;;;;;;;;;;;;;25.95;56.54;100809.84;5058339;28;19909;-81
2022/07/09 07:53:29;;;;;;;;;;;;;;;26.02;57.12;100800.03;5044607;28;19920;-81
2022/07/09 07:55:55;;;;;;;;;;;;;;;26.04;56.47;100795.53;5050496;28;19913;-82
2022/07/09 07:58:22;;;;;;;;;;;;;;;26.05;56.92;100794.63;5033284;28;19915;-83
2022/07/09 08:00:49;;;;;;;;;;;;;;;25.99;57.05;100796.47;5048988;28;19924;-82
2022/07/09 08:03:15;;;;;;;;;;;;;;;26.04;57.02;100779.47;5032566;28;19929;-81
2022/07/09 08:05:40;;;;;;;;;;;;;;;25.94;57.15;100781.34;5048943;28;20303;-82
2022/07/09 08:08:05;;;;;;;;;;;;;;;25.92;57.10;100788.50;5032927;28;19908;-83
2022/07/09 08:10:31;;;;;;;;;;;;;;;25.90;57.09;100785.81;5050912;28;19916;-82
2022/07/09 08:12:57;;;;;;;;;;;;;;;25.97;56.88;100783.97;5051664;28;20299;-82
2022/07/09 08:15:23;;;;;;;;;;;;;;;25.96;56.95;100776.88;5051441;28;19958;-81
2022/07/09 08:17:51;;;;;;;;;;;;;;;26.03;56.78;100780.38;5039123;28;20288;-83
2022/07/09 08:20:18;;;;;;;;;;;;;;;26.03;56.93;100777.69;5035068;28;20377;-81
2022/07/09 08:22:43;;;;;;;;;;;;;;;25.99;57.01;100782.19;5033261;28;19950;-82
2022/07/09 08:25:09;;;;;;;;;;;;;;;25.95;56.95;100772.41;5039677;28;19944;-81
2022/07/09 08:27:34;;;;;;;;;;;;;;;26.00;56.96;100774.16;5051647;28;20303;-82
2022/07/09 08:30:00;;;;;;;;;;;;;;;25.97;57.30;100781.31;5050868;28;19908;-81
2022/07/09 08:32:25;;;;;;;;;;;;;;;25.95;56.76;100773.31;5051499;28;20315;-82
2022/07/09 08:34:51;;;;;;;;;;;;;;;25.96;56.53;100776.88;5047729;28;19978;-81
2022/07/09 08:37:16;;;;;;;;;;;;;;;25.98;56.95;100775.06;5056581;28;19912;-81
2022/07/09 08:39:42;;;;;;;;;;;;;;;26.03;56.63;100772.34;5037555;28;20308;-81
2022/07/09 08:42:08;;;;;;;;;;;;;;;26.05;56.79;100768.75;5033876;28;20046;-81
2022/07/09 08:44:35;;;;;;;;;;;;;;;26.04;56.85;100768.78;5049146;28;19947;-80
2022/07/09 08:47:00;;;;;;;;;;;;;;;26.00;57.09;100762.56;5021660;28;19944;-81
2022/07/09 08:49:26;;;;;;;;;;;;;;;25.98;57.03;100767.91;5043679;28;20596;-81
2022/07/09 08:51:52;;;;;;;;;;;;;;;25.92;57.16;100762.63;5025388;28;19909;-81
2022/07/09 08:54:17;;;;;;;;;;;;;;;25.96;56.57;100767.03;5033221;28;19916;-81
2022/07/09 08:56:43;;;;;;;;;;;;;;;25.98;56.57;100773.28;5051405;28;19935;-82
2022/07/09 08:59:08;;;;;;;;;;;;;;;25.99;56.45;100763.44;5033893;28;20368;-80
2022/07/09 09:01:34;;;;;;;;;;;;;;;25.98;56.92;100765.25;5044923;28;20075;-81
2022/07/09 09:03:59;;;;;;;;;;;;;;;26.07;56.50;100766.94;5045603;28;19943;-80
2022/07/09 09:06:25;;;;;;;;;;;;;;;26.02;56.65;100747.38;5051313;28;20373;-81
2022/07/09 09:08:53;;;;;;;;;;;;;;;26.07;56.75;100774.09;5040316;28;20277;-81
2022/07/09 09:11:23;;;;;;;;;;;;;;;25.95;56.99;100770.63;5035040;28;20011;-81
2022/07/09 09:13:48;;;;;;;;;;;;;;;26.00;56.78;100768.78;5033349;28;19908;-82
2022/07/09 09:16:16;;;;;;;;;;;;;;;26.03;56.53;100762.50;5032431;28;19913;-82
2022/07/09 09:18:42;;;;;;;;;;;;;;;26.04;56.71;100771.47;5033575;28;20016;-82
2022/07/09 09:21:07;;;;;;;;;;;;;;;26.02;56.82;100774.13;5032832;28;20018;-81
2022/07/09 09:23:40;;;;;;;;;;;;;;;25.95;56.81;100772.41;5014122;28;20388;-81
2022/07/09 09:26:09;;;;;;;;;;;;;;;26.07;56.25;100772.28;5045949;28;20311;-82
2022/07/09 09:28:34;;;;;;;;;;;;;;;26.05;56.45;100765.19;5038227;28;19987;-81
2022/07/09 09:31:00;;;;;;;;;;;;;;;25.97;56.79;100771.50;5034776;28;20374;-81
2022/07/09 09:33:26;;;;;;;;;;;;;;;26.09;56.63;100764.25;5035302;28;19924;-81
2022/07/09 09:35:51;;;;;;;;;;;;;;;26.00;56.04;100767.91;5035944;28;20311;-80
2022/07/09 09:38:22;;;;;;;;;;;;;;;25.98;56.43;100767.03;5053606;28;20354;-81
2022/07/09 09:40:47;;;;;;;;;;;;;;;26.07;56.31;100763.38;5040250;28;20376;-80
2022/07/09 09:43:13;;;;;;;;;;;;;;;26.11;56.12;100763.34;5054438;28;19908;-81
2022/07/09 09:45:38;;;;;;;;;;;;;;;26.10;56.25;100763.34;5034169;28;19916;-81
2022/07/09 09:48:04;;;;;;;;;;;;;;;26.14;56.12;100762.41;5038796;28;20424;-81
2022/07/09 09:50:29;;;;;;;;;;;;;;;26.17;56.03;100763.28;5042779;28;19908;-81
2022/07/09 09:52:54;;;;;;;;;;;;;;;26.15;56.45;100759.72;5054422;28;19920;-81
2022/07/09 09:55:20;;;;;;;;;;;;;;;26.19;56.22;100757.91;5019985;28;19931;-81
2022/07/09 09:57:48;;;;;;;;;;;;;;;26.20;56.15;100765.94;5054189;28;19948;-81
2022/07/09 10:00:14;;;;;;;;;;;;;;;26.20;56.23;100765.03;5054002;28;19909;-81
2022/07/09 10:02:43;;;;;;;;;;;;;;;26.25;55.83;100762.31;5038579;28;19943;-81
2022/07/09 10:05:09;;;;;;;;;;;;;;;26.26;56.47;100756.94;5052861;28;19908;-81
2022/07/09 10:07:34;;;;;;;;;;;;;;;26.27;55.80;100752.44;5052627;28;20296;-81
2022/07/09 10:09:59;;;;;;;;;;;;;;;26.27;56.18;100749.78;5035967;28;20319;-81
2022/07/09 10:12:26;;;;;;;;;;;;;;;26.31;56.32;100751.50;5053432;28;20007;-81
2022/07/09 10:14:52;;;;;;;;;;;;;;;26.28;56.13;100751.56;5053247;28;19915;-80
2022/07/09 10:17:17;;;;;;;;;;;;;;;26.29;56.10;100747.97;5053525;28;19912;-81
2022/07/09 10:19:53;;;;;;;;;;;;;;;26.34;56.26;100754.19;5053094;28;19979;-82
2022/07/09 10:22:18;;;;;;;;;;;;;;;26.36;56.37;100749.69;5053008;28;20319;-82
2022/07/09 10:24:44;;;;;;;;;;;;;;;26.33;56.27;100747.94;5035681;28;19909;-80
2022/07/09 10:27:10;;;;;;;;;;;;;;;26.30;56.40;100750.63;5035734;28;20307;-81
2022/07/09 10:29:56;;;;;;;;;;;;;;;26.33;56.38;100737.22;5035389;28;19913;-82
2022/07/09 10:32:31;;;;;;;;;;;;;;;26.38;56.36;100754.13;5052820;28;19909;-81
2022/07/09 10:35:01;;;;;;;;;;;;;;;26.35;56.38;100739.88;5035584;28;19915;-82
2022/07/09 10:37:34;;;;;;;;;;;;;;;26.38;56.62;100743.41;5025597;28;20010;-81
2022/07/09 10:40:20;;;;;;;;;;;;;;;26.41;56.47;100745.16;5023559;28;20007;-81
2022/07/09 10:42:56;;;;;;;;;;;;;;;26.44;56.49;100741.53;5033483;28;19913;-81
2022/07/09 10:45:23;;;;;;;;;;;;;;;26.44;56.71;100738.88;5047334;28;19959;-81
2022/07/09 10:47:55;;;;;;;;;;;;;;;26.47;56.27;100741.53;5037337;28;19915;-83
2022/07/09 10:50:22;;;;;;;;;;;;;;;26.45;56.55;100740.66;5059500;28;19908;-82
2022/07/09 10:52:48;;;;;;;;;;;;;;;26.36;56.51;100736.31;5037914;28;19908;-81
2022/07/09 10:55:15;;;;;;;;;;;;;;;26.35;56.26;100732.75;5026809;28;20376;-82
2022/07/09 10:57:40;;;;;;;;;;;;;;;26.40;56.16;100730.00;5033646;28;19913;-82
2022/07/09 11:00:07;;;;;;;;;;;;;;;26.41;56.07;100729.09;5053944;28;19916;-81
2022/07/09 11:02:33;;;;;;;;;;;;;;;26.40;56.04;100727.34;5053531;28;19913;-81
2022/07/09 11:04:58;;;;;;;;;;;;;;;26.38;55.20;100738.06;5053961;28;20257;-81
2022/07/09 11:07:24;;;;;;;;;;;;;;;26.34;55.33;100722.03;5037190;28;19955;-83
2022/07/09 11:09:50;;;;;;;;;;;;;;;26.41;55.78;100729.09;5048754;28;19980;-82
2022/07/09 11:12:16;;;;;;;;;;;;;;;26.41;55.52;100724.63;5045820;28;20506;-81
2022/07/09 11:14:48;;;;;;;;;;;;;;;26.48;55.65;100728.13;5049883;28;19939;-81
2022/07/09 11:17:14;;;;;;;;;;;;;;;26.42;55.66;100728.19;5023380;28;20000;-81
2022/07/09 11:19:40;;;;;;;;;;;;;;;26.43;55.35;100727.28;5051018;28;21227;-82
2022/07/09 11:22:05;;;;;;;;;;;;;;;26.41;55.36;100723.72;5054009;28;19919;-82
2022/07/09 11:24:31;;;;;;;;;;;;;;;26.48;55.46;100722.78;5037433;28;20299;-81
2022/07/09 11:27:01;;;;;;;;;;;;;;;26.44;55.73;100731.75;5036860;28;19909;-81
2022/07/09 11:29:26;;;;;;;;;;;;;;;26.49;56.08;100723.66;5050357;28;19919;-80
2022/07/09 11:31:51;;;;;;;;;;;;;;;26.48;55.42;100721.88;5035478;28;19908;-81
2022/07/09 11:34:17;;;;;;;;;;;;;;;26.47;54.81;100720.97;5053908;28;20451;-81
2022/07/09 11:36:47;;;;;;;;;;;;;;;26.53;55.18;100717.34;5052322;28;20394;-81
2022/07/09 11:39:22;;;;;;;;;;;;;;;26.55;55.58;100718.22;5046800;28;19924;-81
2022/07/09 11:41:48;;;;;;;;;;;;;;;26.49;55.55;100721.84;5044846;28;19915;-82
2022/07/09 11:44:23;;;;;;;;;;;;;;;26.49;55.89;100711.16;5034584;28;19913;-81
2022/07/09 11:47:06;;;;;;;;;;;;;;;26.47;56.35;100715.63;5034872;28;20439;-81
2022/07/09 11:49:35;;;;;;;;;;;;;;;26.60;56.09;100709.22;5046711;28;20388;-81
2022/07/09 11:52:03;;;;;;;;;;;;;;;26.62;56.49;100709.22;5045472;28;19908;-81
2022/07/09 11:54:29;;;;;;;;;;;;;;;26.65;56.89;100700.25;5015506;28;20311;-80
2022/07/09 11:56:54;;;;;;;;;;;;;;;26.64;56.78;100711.88;5043970;28;20368;-82
2022/07/09 11:59:27;;;;;;;;;;;;;;;26.67;56.50;100701.13;5034294;28;19908;-80
2022/07/09 12:01:55;;;;;;;;;;;;;;;26.63;57.10;100702.06;5042344;28;19909;-81
2022/07/09 12:04:20;;;;;;;;;;;;;;;26.65;57.44;100692.22;5030811;28;19955;-81
2022/07/09 12:06:50;;;;;;;;;;;;;;;26.63;57.29;100702.97;5034837;28;20010;-81
2022/07/09 12:09:16;;;;;;;;;;;;;;;26.62;57.35;100706.53;5034215;28;19909;-81
2022/07/09 12:11:41;;;;;;;;;;;;;;;26.64;57.46;100703.84;5034562;28;19916;-81
2022/07/09 12:14:07;;;;;;;;;;;;;;;26.66;57.30;100700.25;5039252;28;19909;-80
2022/07/09 12:16:32;;;;;;;;;;;;;;;26.64;57.59;100699.38;5036756;28;19999;-80
2022/07/09 12:18:58;;;;;;;;;;;;;;;26.68;57.25;100701.09;5052015;28;19947;-81
2022/07/09 12:21:23;;;;;;;;;;;;;;;26.67;57.65;100696.69;5064907;28;20445;-81
2022/07/09 12:23:49;;;;;;;;;;;;;;;26.62;58.08;100694.94;5060971;28;19951;-79
2022/07/09 12:26:14;;;;;;;;;;;;;;;26.65;57.89;100693.13;5055728;28;20476;-80
2022/07/09 12:28:41;;;;;;;;;;;;;;;26.70;57.49;100703.78;5051954;28;19971;-81
2022/07/09 12:31:06;;;;;;;;;;;;;;;26.68;57.53;100711.81;5064857;28;20368;-81